Terminal Aerodrome Forecast
Issued by NWS Missoula, MT

Home | Current Version | Previous Version | Text Only | Print | Product List | Glossary On
Versions: 1 2 3 4 5 6 7 8 9 10 11 12
000
FTUS45 KMSO 211120
TAFBTM
TAF
KBTM 211120Z 2112/2212 15007KT P6SM VCSH OVC100
     FM211600 VRB03KT P6SM -RA OVC050
     FM211900 28013G21KT P6SM VCSH OVC040
     FM212100 28015G25KT P6SM -SHRASN BKN030 OVC040=

USA.gov is the U.S. government's official web portal to all federal, state and local government web resources and services.